Latest Weather Observations for Blackall

IDQ60801

Issued at 6:52 pm EST Sunday 29 March 2020 (issued every 10 minutes, with the page automatically refreshed every 10 minutes)

About weather observations | Map of weather stations | Latest weather observations for QLD | Other Formats
Station Details ID: 036034 Name: BLACKALL AIRPORT Lat: -24.43 Lon: 145.43 Height: 281.3 m
Data from the previous 72 hours. | See also: Recent months at Blackall
Date/Time
EST
Temp
°C
App
Temp
°C
Dew
Point
°C
Rel
Hum
%
Delta-T
°C
Wind Press
QNH
hPa
Press
MSL
hPa
Rain since
9am
mm
Dir  Spd
km/h
Gust
km/h
Spd
kts
Gust
kts
29/06:30pm 29.3 28.7 13.5 38 9.5 SSE 9 11 5 6 1013.3 1011.5 0.0
29/06:00pm 30.8 29.7 13.1 34 10.7 SE 11 17 6 9 1013.1 1011.3 0.0
29/05:30pm 31.9 30.7 12.7 31 11.6 SSE 11 17 6 9 1013.1 1011.3 0.0
29/05:00pm 32.4 30.5 13.1 31 11.7 SSE 15 20 8 11 1013.2 1011.4 0.0
29/04:30pm 33.1 31.9 12.7 29 12.3 ESE 11 19 6 10 1013.1 1011.3 0.0
29/04:00pm 33.0 31.1 13.1 30 12.1 SE 15 24 8 13 1012.9 1011.1 0.0
29/03:30pm 32.8 31.8 12.4 29 12.3 SSE 9 20 5 11 1012.9 1011.1 0.0
29/03:00pm 32.7 31.9 12.9 30 12.0 SSE 9 20 5 11 1013.0 1011.2 0.0
29/02:30pm 32.5 31.1 12.2 29 12.1 SE 11 20 6 11 1013.4 1011.6 0.0
29/02:00pm 33.0 31.3 12.6 29 12.3 ESE 13 20 7 11 1013.7 1011.9 0.0
29/01:30pm 32.1 32.0 13.3 31 11.4 SSE 6 20 3 11 1014.3 1012.5 0.0
29/01:00pm 31.1 30.3 12.9 32 10.9 ESE 9 19 5 10 1015.0 1013.2 0.0
29/12:30pm 31.1 31.0 13.8 34 10.6 NW 7 13 4 7 1015.4 1013.6 0.0
29/12:00pm 30.9 30.5 14.1 36 10.3 NE 9 17 5 9 1015.8 1014.0 0.0
29/11:30am 30.8 30.6 15.6 39 9.5 ENE 11 20 6 11 1016.4 1014.6 0.0
29/11:00am 29.9 29.4 16.0 43 8.7 NNE 13 22 7 12 1016.9 1015.1 0.0
29/10:30am 28.9 28.6 16.5 47 7.8 NNE 13 20 7 11 1017.0 1015.3 0.0
29/10:00am 28.4 27.7 17.3 51 7.1 NE 17 24 9 13 1016.9 1015.1 0.0
29/09:30am 27.3 26.4 17.8 56 6.1 NE 19 28 10 15 1017.0 1015.3 0.0
29/09:00am 26.3 25.6 17.4 58 5.6 NE 17 24 9 13 1017.0 1015.3 0.6
29/08:30am 24.9 23.2 17.1 62 4.9 NE 22 28 12 15 1016.6 1014.8 0.6
29/08:00am 23.9 23.9 17.2 66 4.2 NE 13 22 7 12 1016.4 1014.6 0.6
29/07:30am 22.5 22.6 16.5 69 3.7 ENE 11 13 6 7 1016.1 1014.3 0.6
29/07:00am 20.9 21.2 16.1 74 2.9 ENE 9 11 5 6 1015.7 1013.9 0.6
29/06:30am 19.9 20.1 15.7 77 2.5 ENE 9 13 5 7 1015.2 1013.4 0.6
29/06:00am 20.2 20.0 15.8 76 2.7 ENE 11 15 6 8 1015.0 1013.2 0.6
29/05:30am 19.7 19.9 15.8 78 2.3 ENE 9 11 5 6 1014.8 1013.0 0.6
29/05:00am 19.6 19.7 15.5 77 2.5 ENE 9 11 5 6 1014.5 1012.7 0.6
29/04:30am 19.8 20.2 15.4 76 2.6 ENE 7 11 4 6 1014.2 1012.4 0.6
29/04:00am 19.9 20.5 15.7 77 2.5 E 7 9 4 5 1013.9 1012.2 0.6
29/03:30am 19.8 19.9 15.4 76 2.6 E 9 11 5 6 1013.7 1011.9 0.6
29/03:00am 20.5 21.0 15.5 73 3.0 E 7 9 4 5 1013.9 1012.2 0.6
29/02:30am 20.9 20.7 15.7 72 3.1 ENE 11 13 6 7 1014.2 1012.4 0.6
29/02:00am 21.4 20.9 15.9 71 3.3 NE 13 17 7 9 1014.5 1012.7 0.6
29/01:30am 20.5 21.1 15.7 74 2.9 E 7 9 4 5 1014.9 1013.1 0.6
29/01:00am 21.1 21.2 15.6 71 3.3 E 9 13 5 7 1015.1 1013.3 0.6
29/12:30am 21.6 21.8 15.7 69 3.6 E 9 13 5 7 1015.3 1013.5 0.6
29/12:00am 22.0 21.8 15.8 68 3.8 E 11 15 6 8 1015.2 1013.4 0.6
 
Date/Time
EST
Temp
°C
App
Temp
°C
Dew
Point
°C
Rel
Hum
%
Delta-T
°C
Wind Press
QNH
hPa
Press
MSL
hPa
Rain since
9am
mm
Dir  Spd
km/h
Gust
km/h
Spd
kts
Gust
kts
28/11:30pm 22.2 21.7 16.0 68 3.8 ESE 13 15 7 8 1015.3 1013.5 0.6
28/11:00pm 22.9 22.5 16.2 66 4.1 ESE 13 17 7 9 1015.5 1013.7 0.6
28/10:30pm 22.4 22.1 16.4 69 3.7 ESE 13 15 7 8 1015.5 1013.7 0.6
28/10:00pm 22.7 23.1 16.3 67 3.9 SE 9 11 5 6 1015.6 1013.8 0.6
28/09:30pm 22.6 22.7 16.4 68 3.8 ESE 11 13 6 7 1015.5 1013.7 0.6
28/09:00pm 22.6 22.7 16.6 69 3.7 ESE 11 15 6 8 1015.2 1013.4 0.6
28/08:30pm 23.1 23.4 16.9 68 3.9 ESE 11 11 6 6 1014.9 1013.1 0.6
28/08:00pm 23.4 24.2 17.2 68 3.9 SE 9 13 5 7 1014.8 1013.0 0.6
28/07:30pm 24.0 24.7 17.0 65 4.4 SSE 9 11 5 6 1014.6 1012.8 0.6
28/07:00pm 24.0 25.8 18.4 71 3.6 SE 6 11 3 6 1014.2 1012.4 0.6
28/06:30pm 25.5 26.7 17.4 61 5.1 SE 7 9 4 5 1014.0 1012.3 0.6
28/06:00pm 26.0 26.8 17.4 59 5.4 ESE 9 13 5 7 1013.8 1012.1 0.6
28/05:30pm 24.9 25.3 18.1 66 4.3 ESE 13 15 7 8 1013.7 1011.9 0.6
28/05:00pm 24.1 23.2 18.1 69 3.8 ESE 20 28 11 15 1013.8 1012.1 0.4
28/04:30pm 28.6 24.8 14.8 43 8.5 SE 28 39 15 21 1013.4 1011.6 0.0
28/04:16pm 29.2 26.6 13.8 39 9.3 ESE 20 39 11 21 1013.2 1011.4 0.0
28/04:00pm 31.2 30.3 12.5 31 11.2 ESE 9 17 5 9 1013.1 1011.3 0.0
28/03:30pm 31.9 31.8 12.2 30 11.8 E 4 13 2 7 1013.1 1011.3 0.0
28/03:00pm 30.9 30.1 12.8 33 10.9 NNE 9 17 5 9 1013.4 1011.6 0.0
28/02:30pm 32.0 31.2 12.8 31 11.6 SSE 9 17 5 9 1013.9 1012.2 0.0
28/02:00pm 32.2 31.6 13.4 32 11.4 W 9 20 5 11 1014.4 1012.6 0.0
28/01:30pm 31.0 30.5 12.8 32 10.9 ESE 7 17 4 9 1014.8 1013.0 0.0
28/01:00pm 31.6 30.6 14.7 36 10.5 NNE 13 20 7 11 1015.4 1013.6 0.0
28/12:30pm 29.8 27.9 13.1 36 10.0 NE 15 22 8 12 1015.9 1014.1 0.0
28/12:00pm 29.5 27.8 13.7 38 9.6 N 15 26 8 14 1016.4 1014.6 0.0
28/11:30am 28.6 27.5 14.4 41 8.7 NNE 13 19 7 10 1017.0 1015.3 0.0
28/11:00am 27.6 25.7 14.3 44 8.1 NNE 17 24 9 13 1017.4 1015.7 0.0
28/10:30am 27.0 25.3 14.7 47 7.5 NNE 17 22 9 12 1017.9 1016.1 0.0
28/10:00am 26.4 25.2 15.1 49 6.9 NNE 15 20 8 11 1018.2 1016.4 0.0
28/09:30am 26.4 25.3 15.4 50 6.8 NE 15 20 8 11 1018.2 1016.4 0.0
28/09:00am 24.9 23.2 15.8 57 5.6 NE 19 30 10 16 1018.1 1016.3 0.0
28/08:30am 24.1 22.9 16.1 61 4.9 NE 17 24 9 13 1017.7 1016.0 0.0
28/08:00am 23.7 22.9 16.2 63 4.6 NE 15 22 8 12 1017.4 1015.7 0.0
28/07:30am 23.5 23.7 16.8 66 4.2 ENE 11 19 6 10 1017.0 1015.3 0.0
28/07:00am 22.2 22.5 17.1 73 3.2 ENE 11 15 6 8 1016.6 1014.8 0.0
28/06:30am 21.3 21.2 16.9 76 2.7 ENE 13 15 7 8 1016.3 1014.5 0.0
28/06:00am 21.3 21.5 16.7 75 2.8 ENE 11 15 6 8 1016.0 1014.2 0.0
28/05:30am 21.5 21.6 16.5 73 3.1 ENE 11 13 6 7 1015.9 1014.1 0.0
28/05:00am 22.0 22.1 16.5 71 3.4 ENE 11 13 6 7 1015.6 1013.8 0.0
28/04:30am 22.2 22.9 16.2 69 3.7 NE 7 9 4 5 1015.6 1013.8 0.0
28/04:00am 22.4 23.5 15.5 65 4.2 NW 4 7 2 4 1015.3 1013.5 0.0
28/03:30am 22.4 23.1 15.5 65 4.2 N 6 7 3 4 1015.3 1013.5 0.0
28/03:00am 23.2 23.2 15.3 61 4.8 NE 9 13 5 7 1015.1 1013.3 0.0
28/02:30am 23.3 22.6 15.4 61 4.8 ENE 13 19 7 10 1015.1 1013.3 0.0
28/02:00am 22.7 22.4 15.5 64 4.4 E 11 15 6 8 1015.2 1013.4 0.0
28/01:30am 23.0 23.1 15.6 63 4.5 ESE 9 11 5 6 1015.3 1013.5 0.0
28/01:00am 23.2 23.9 15.5 62 4.7 SSE 6 7 3 4 1015.4 1013.6 0.0
28/12:30am 23.3 23.0 15.4 61 4.8 E 11 15 6 8 1015.5 1013.7 0.0
28/12:00am 22.8 22.4 15.1 62 4.6 ESE 11 13 6 7 1015.6 1013.8 0.0
 
Date/Time
EST
Temp
°C
App
Temp
°C
Dew
Point
°C
Rel
Hum
%
Delta-T
°C
Wind Press
QNH
hPa
Press
MSL
hPa
Rain since
9am
mm
Dir  Spd
km/h
Gust
km/h
Spd
kts
Gust
kts
27/11:30pm 23.2 22.5 15.3 61 4.8 ESE 13 19 7 10 1015.7 1013.9 0.0
27/11:00pm 23.5 23.0 15.0 59 5.1 E 11 15 6 8 1016.2 1014.4 0.0
27/10:30pm 23.9 23.0 14.9 57 5.4 E 13 19 7 10 1016.3 1014.5 0.0
27/10:00pm 24.5 23.1 14.6 54 6.0 ENE 15 24 8 13 1016.3 1014.5 0.0
27/09:30pm 25.2 23.5 14.6 51 6.4 E 17 22 9 12 1016.2 1014.4 0.0
27/09:00pm 25.8 23.9 14.3 49 6.9 E 17 22 9 12 1016.0 1014.2 0.0
27/08:30pm 25.6 24.9 14.4 50 6.7 E 11 19 6 10 1015.9 1014.1 0.0
27/08:00pm 26.2 26.0 14.6 48 7.0 ESE 9 15 5 8 1015.4 1013.6 0.0
27/07:30pm 26.2 25.1 14.3 48 7.2 ESE 13 15 7 8 1015.0 1013.2 0.0
27/07:00pm 26.8 25.8 13.5 44 7.9 ESE 11 13 6 7 1014.7 1012.9 0.0
27/06:30pm 27.5 26.4 13.1 41 8.6 ESE 11 15 6 8 1014.5 1012.7 0.0
27/06:00pm 28.8 28.0 13.9 40 9.0 ESE 11 20 6 11 1014.3 1012.5 0.0
27/05:30pm 29.7 27.2 13.5 37 9.8 ESE 19 26 10 14 1013.9 1012.2 0.0
27/05:00pm 30.1 26.4 13.8 37 9.9 ESE 26 32 14 17 1013.7 1011.9 0.0
27/04:30pm 32.0 30.8 12.8 31 11.6 E 11 22 6 12 1013.5 1011.7 0.0
27/04:00pm 32.1 31.8 13.3 31 11.4 NE 7 13 4 7 1013.6 1011.8 0.0
27/03:30pm 32.0 31.1 13.7 33 11.2 NNE 11 17 6 9 1014.0 1012.3 0.0
27/03:00pm 31.3 32.2 14.0 35 10.6 ESE 2 7 1 4 1014.3 1012.5 0.0
27/02:30pm 31.2 31.2 13.5 34 10.7 S 6 13 3 7 1014.6 1012.8 0.0
27/02:00pm 31.8 31.6 13.5 32 11.1 E 7 11 4 6 1014.9 1013.1 0.0
27/01:30pm 32.3 31.3 13.5 32 11.5 N 11 19 6 10 1015.3 1013.5 0.0
27/01:00pm 31.6 31.1 13.8 34 10.9 NW 9 15 5 8 1015.9 1014.1 0.0
27/12:30pm 31.6 31.8 14.7 36 10.5 NNW 7 15 4 8 1016.3 1014.5 0.0
27/12:00pm 31.0 30.4 14.6 37 10.1 NNE 11 24 6 13 1016.9 1015.1 0.0
27/11:30am 30.5 30.1 16.1 41 9.1 N 13 20 7 11 1017.2 1015.5 0.0
27/11:00am 29.5 28.5 15.6 43 8.6 NNE 15 24 8 13 1017.5 1015.8 0.0
27/10:30am 28.7 27.4 15.9 45 8.0 NE 17 22 9 12 1017.9 1016.1 0.0
27/10:00am 27.0 25.8 16.0 51 6.8 NE 17 24 9 13 1018.2 1016.4 0.0
27/09:30am 26.2 24.9 15.9 53 6.4 NNE 17 26 9 14 1018.4 1016.6 0.0
27/09:00am 25.3 23.8 16.2 57 5.6 NNE 19 30 10 16 1018.3 1016.5 0.0
27/08:30am 24.9 23.9 15.5 56 5.7 NE 15 20 8 11 1018.2 1016.4 0.0
27/08:00am 24.0 24.4 16.3 62 4.7 ENE 9 15 5 8 1018.0 1016.2 0.0
27/07:30am 23.0 23.9 16.5 67 4.0 E 7 9 4 5 1017.6 1015.9 0.0
27/07:00am 22.2 23.1 16.7 71 3.4 ESE 7 11 4 6 1017.3 1015.6 0.0
27/06:30am 22.1 23.0 16.6 71 3.4 NE 7 9 4 5 1016.7 1014.9 0.0
27/06:00am 22.0 22.9 16.7 72 3.3 ENE 7 9 4 5 1016.5 1014.7 0.0
27/05:30am 22.0 22.6 16.9 73 3.2 ENE 9 9 5 5 1016.3 1014.5 0.0
27/05:00am 22.0 23.1 16.7 72 3.3 E 6 7 3 4 1016.1 1014.3 0.0
27/04:30am 21.8 22.7 16.5 72 3.3 E 7 9 4 5 1015.9 1014.1 0.0
27/04:00am 21.5 22.0 16.5 73 3.1 E 9 11 5 6 1015.6 1013.8 0.0
27/03:30am 21.3 21.7 16.3 73 3.1 ESE 9 13 5 7 1015.5 1013.7 0.0
27/03:00am 21.4 22.1 16.1 72 3.2 SSE 7 9 4 5 1015.8 1014.0 0.0
27/02:30am 21.4 21.7 15.9 71 3.3 SSW 9 13 5 7 1015.8 1014.0 0.0
27/02:00am 22.0 22.7 16.1 69 3.6 SE 7 9 4 5 1015.8 1014.0 0.0
27/01:30am 22.2 22.9 16.0 68 3.8 SE 7 9 4 5 1016.0 1014.2 0.0
27/01:00am 22.8 23.1 16.1 66 4.1 SSE 9 9 5 5 1016.1 1014.3 0.0
27/12:30am 23.1 23.7 15.7 63 4.5 ESE 7 9 4 5 1016.1 1014.3 0.0
27/12:00am 23.9 23.7 15.7 60 5.0 E 11 15 6 8 1016.4 1014.6 0.0
 
Date/Time
EST
Temp
°C
App
Temp
°C
Dew
Point
°C
Rel
Hum
%
Delta-T
°C
Wind Press
QNH
hPa
Press
MSL
hPa
Rain since
9am
mm
Dir  Spd
km/h
Gust
km/h
Spd
kts
Gust
kts
26/11:30pm 23.6 23.6 15.1 59 5.1 ESE 9 13 5 7 1016.5 1014.7 0.0
26/11:00pm 23.9 23.7 14.6 56 5.6 SE 9 11 5 6 1016.6 1014.8 0.0
26/10:30pm 23.9 23.6 14.3 55 5.7 ESE 9 13 5 7 1016.6 1014.8 0.0
26/10:00pm 23.6 22.8 14.0 55 5.7 ESE 11 13 6 7 1016.7 1014.9 0.0
26/09:30pm 23.8 23.6 14.8 57 5.4 SE 9 11 5 6 1016.7 1014.9 0.0
26/09:00pm 24.0 24.1 15.5 59 5.2 SE 9 9 5 5 1016.6 1014.8 0.0
26/08:30pm 24.6 24.7 15.5 57 5.6 SE 9 9 5 5 1016.4 1014.6 0.0
26/08:00pm 24.2 24.5 14.9 56 5.6 S 7 7 4 4 1016.3 1014.5 0.0
26/07:30pm 25.4 25.5 14.5 51 6.6 SSE 7 7 4 4 1015.9 1014.1 0.0
26/07:00pm 26.8 27.0 14.2 46 7.6 SSE 6 7 3 4 1015.7 1013.9 0.0

Other formats

Comma delimited format used in spreadsheet applications
http://www.bom.gov.au/fwo/IDQ60801/IDQ60801.95351.axf

JavaScript Object Notation format (JSON) in row-major order
http://www.bom.gov.au/fwo/IDQ60801/IDQ60801.95351.json

Data quality

Most of these data are generated automatically and are frequently updated. Quality checks on data are not normally performed. It is possible for incorrect values to appear. Refer to information at About Latest Weather Observations and please check the disclaimer before using these data.